Time;durP1;ratioP1;P1;durP2;ratioP2;P2;SDS_P1;SDS_P2;PMS_P1;PMS_P2;Temp;Humidity;BMP_temperature;BMP_pressure;BME280_temperature;BME280_humidity;BME280_pressure;Samples;Min_cycle;Max_cycle;Signal;HPM_P1;HPM_P2
2022/01/30 00:00:31;;;;;;;23.48;3.53;;;;;;;6.84;100.00;102703.97;5070365;28;20036;-37
2022/01/30 00:02:58;;;;;;;23.05;3.58;;;;;;;6.79;100.00;102706.59;5070079;28;20051;-39
2022/01/30 00:05:27;;;;;;;18.88;3.67;;;;;;;6.80;100.00;102722.16;5070336;28;20060;-37
2022/01/30 00:07:55;;;;;;;24.08;3.20;;;;;;;6.77;100.00;102695.75;5069307;28;20046;-37
2022/01/30 00:10:23;;;;;;;19.63;3.28;;;;;;;6.75;100.00;102692.34;5074065;28;20048;-30
2022/01/30 00:12:55;;;;;;;22.00;4.03;;;;;;;6.74;100.00;102696.19;5074346;28;20413;-33
2022/01/30 00:15:35;;;;;;;22.58;2.83;;;;;;;6.72;100.00;102703.88;5074641;28;20040;-32
2022/01/30 00:18:08;;;;;;;20.80;2.80;;;;;;;6.70;100.00;102700.50;5073459;28;20045;-35
2022/01/30 00:20:38;;;;;;;15.77;2.90;;;;;;;6.71;100.00;102704.13;5075011;28;20128;-33
2022/01/30 00:23:11;;;;;;;18.80;3.03;;;;;;;6.73;100.00;102724.16;5074415;28;20444;-32
2022/01/30 00:25:47;;;;;;;23.33;3.38;;;;;;;6.72;100.00;102719.69;5073762;28;20121;-32
2022/01/30 00:28:18;;;;;;;12.52;2.25;;;;;;;6.66;100.00;102702.03;5074305;28;20045;-32
2022/01/30 00:30:46;;;;;;;15.05;2.35;;;;;;;6.56;100.00;102710.03;5073993;28;20044;-33
2022/01/30 00:33:14;;;;;;;15.38;2.25;;;;;;;6.50;100.00;102706.22;5073569;28;20457;-35
2022/01/30 00:35:42;;;;;;;12.70;2.70;;;;;;;6.45;100.00;102707.97;5074320;28;20048;-37
2022/01/30 00:38:15;;;;;;;16.45;2.25;;;;;;;6.40;100.00;102707.78;5073359;28;20056;-38
2022/01/30 00:40:44;;;;;;;21.55;2.90;;;;;;;6.37;100.00;102706.34;5074178;28;20048;-33
2022/01/30 00:43:13;;;;;;;22.98;3.22;;;;;;;6.34;100.00;102715.13;5073912;28;20053;-35
2022/01/30 00:45:43;;;;;;;26.23;3.65;;;;;;;6.34;100.00;102703.19;5072926;28;20036;-37
2022/01/30 00:48:11;;;;;;;34.20;4.47;;;;;;;6.33;100.00;102705.09;5073667;28;20044;-34
2022/01/30 00:50:39;;;;;;;25.55;4.18;;;;;;;6.34;100.00;102708.72;5072065;28;20144;-36
2022/01/30 00:53:07;;;;;;;19.33;3.25;;;;;;;6.33;100.00;102721.72;5071488;28;20045;-35
2022/01/30 00:55:36;;;;;;;29.98;4.25;;;;;;;6.34;100.00;102723.44;5073188;28;20048;-34
2022/01/30 00:58:04;;;;;;;20.50;3.25;;;;;;;6.35;100.00;102718.75;5073835;28;20094;-34
2022/01/30 01:00:33;;;;;;;20.27;3.47;;;;;;;6.33;100.00;102721.72;5071352;28;20439;-39
2022/01/30 01:03:03;;;;;;;31.02;4.75;;;;;;;6.34;100.00;102715.13;5073640;28;20545;-36
2022/01/30 01:05:34;;;;;;;21.50;2.83;;;;;;;6.33;100.00;102726.44;5073868;28;20053;-34
2022/01/30 01:08:10;;;;;;;20.90;3.53;;;;;;;6.34;100.00;102723.44;5067344;28;20486;-38
2022/01/30 01:10:42;;;;;;;21.92;3.80;;;;;;;6.35;100.00;102708.50;5072620;28;20409;-32
2022/01/30 01:13:27;;;;;;;16.40;2.90;;;;;;;6.37;100.00;102720.22;5068731;28;20504;-32
2022/01/30 01:24:13;;;;;;;20.92;3.55;;;;;;;6.37;100.00;102742.41;5073562;28;20037;-32
2022/01/30 01:26:40;;;;;;;20.08;3.03;;;;;;;6.40;100.00;102743.84;5071830;28;20045;-31
2022/01/30 01:29:09;;;;;;;19.73;3.05;;;;;;;6.40;100.00;102739.16;5061713;28;20393;-37
2022/01/30 01:31:36;;;;;;;16.60;2.88;;;;;;;6.40;100.00;102738.28;5073179;28;20044;-33
2022/01/30 01:34:23;;;;;;;19.48;3.38;;;;;;;6.39;100.00;102737.47;5071736;28;20139;-34
2022/01/30 01:36:51;;;;;;;19.55;3.17;;;;;;;6.38;100.00;102737.69;5071872;28;20037;-33
2022/01/30 01:39:18;;;;;;;24.92;3.75;;;;;;;6.38;100.00;102741.31;5072880;28;20158;-31
2022/01/30 01:41:46;;;;;;;22.75;3.05;;;;;;;6.37;100.00;102736.84;5072356;28;20057;-34
2022/01/30 01:44:15;;;;;;;25.13;4.57;;;;;;;6.38;100.00;102735.78;5068126;28;20193;-30
2022/01/30 01:46:44;;;;;;;22.73;3.90;;;;;;;6.38;100.00;102729.38;5072199;28;20115;-38
2022/01/30 01:49:20;;;;;;;22.25;3.30;;;;;;;6.39;100.00;102733.84;5070538;28;20509;-35
2022/01/30 01:52:00;;;;;;;20.17;3.17;;;;;;;6.38;100.00;102730.22;5071404;28;20044;-38
2022/01/30 01:54:28;;;;;;;17.27;3.40;;;;;;;6.37;100.00;102747.94;5070844;28;20135;-32
2022/01/30 01:56:56;;;;;;;23.15;3.40;;;;;;;6.39;100.00;102742.16;5070772;28;20136;-38
2022/01/30 01:59:33;;;;;;;27.42;4.15;;;;;;;6.38;100.00;102744.09;5071161;28;20097;-36
2022/01/30 02:02:16;;;;;;;22.38;3.85;;;;;;;6.38;100.00;102744.09;5061039;28;20094;-34
2022/01/30 02:04:46;;;;;;;18.90;3.40;;;;;;;6.40;100.00;102738.28;5069350;28;20079;-39
2022/01/30 02:07:49;;;;;;;23.80;3.58;;;;;;;6.39;100.00;102743.03;5071196;28;20211;-37
2022/01/30 02:10:23;;;;;;;25.13;3.42;;;;;;;6.37;100.00;102745.16;5070226;28;20054;-30
2022/01/30 02:12:54;;;;;;;25.70;4.10;;;;;;;6.38;100.00;102740.47;5072355;28;20054;-35
2022/01/30 02:23:55;;;;;;;19.25;3.40;;;;;;;6.40;100.00;102739.16;5071113;28;20040;-38
2022/01/30 02:24:21;;;;;;;28.30;3.13;;;;;;;6.39;100.00;102742.16;5046985;28;20055;-36
2022/01/30 02:26:49;;;;;;;18.67;2.92;;;;;;;6.37;100.00;102750.72;5070994;28;20056;-36
2022/01/30 02:29:19;;;;;;;23.80;3.03;;;;;;;6.37;100.00;102745.16;5070005;28;20036;-33
2022/01/30 02:31:47;;;;;;;18.85;3.00;;;;;;;6.35;100.00;102744.53;5071050;28;20456;-37
2022/01/30 02:34:15;;;;;;;22.88;3.65;;;;;;;6.35;100.00;102741.78;5070662;28;20523;-35
2022/01/30 02:36:45;;;;;;;18.55;3.53;;;;;;;6.34;100.00;102755.84;5070651;28;20052;-32
2022/01/30 02:39:15;;;;;;;23.90;3.22;;;;;;;6.32;100.00;102744.97;5069386;28;20590;-31
2022/01/30 02:41:43;;;;;;;20.20;3.58;;;;;;;6.35;100.00;102752.00;5070075;28;20090;-33
2022/01/30 02:44:16;;;;;;;23.58;4.00;;;;;;;6.37;100.00;102766.50;5070305;28;20052;-29
2022/01/30 02:46:46;;;;;;;21.33;4.07;;;;;;;6.34;100.00;102751.16;5058835;28;20044;-33
2022/01/30 02:49:29;;;;;;;19.92;3.17;;;;;;;6.34;100.00;102753.94;5070411;28;20090;-32
2022/01/30 02:51:59;;;;;;;22.83;3.75;;;;;;;6.32;100.00;102749.69;5059421;28;20064;-36
2022/01/30 02:54:30;;;;;;;26.13;4.38;;;;;;;6.31;100.00;102745.22;5071277;28;20152;-39
2022/01/30 02:56:58;;;;;;;21.48;2.83;;;;;;;6.30;100.00;102744.34;5070215;28;20167;-33
2022/01/30 02:59:26;;;;;;;23.30;3.72;;;;;;;6.30;100.00;102744.34;5069241;28;20079;-31
2022/01/30 03:01:54;;;;;;;32.70;4.95;;;;;;;6.31;100.00;102742.44;5069907;28;20079;-37
2022/01/30 03:04:22;;;;;;;26.45;3.83;;;;;;;6.31;100.00;102757.16;5071566;28;20148;-35
2022/01/30 03:06:50;;;;;;;28.17;3.97;;;;;;;6.30;100.00;102747.13;5069158;28;20056;-33
2022/01/30 03:09:36;;;;;;;23.85;4.13;;;;;;;6.31;100.00;102757.16;5060271;28;20489;-35
2022/01/30 03:12:06;;;;;;;27.13;4.10;;;;;;;6.31;100.00;102765.47;5069785;28;20364;-36
2022/01/30 03:14:34;;;;;;;24.80;3.63;;;;;;;6.29;100.00;102763.97;5069139;28;20044;-29
2022/01/30 03:17:03;;;;;;;22.33;3.53;;;;;;;6.29;100.00;102763.97;5069539;28;20127;-35
2022/01/30 03:19:30;;;;;;;27.02;3.90;;;;;;;6.27;100.00;102769.75;5071062;28;20048;-31
2022/01/30 03:21:58;;;;;;;19.15;3.65;;;;;;;6.27;100.00;102766.13;5069028;28;20611;-31
2022/01/30 03:24:33;;;;;;;24.70;3.55;;;;;;;6.25;100.00;102768.28;5071257;28;20123;-33
2022/01/30 03:27:10;;;;;;;26.45;4.07;;;;;;;6.23;100.00;102761.03;5068910;28;20417;-33
2022/01/30 03:29:49;;;;;;;20.63;2.92;;;;;;;6.21;100.00;102768.72;5069693;28;20130;-32
2022/01/30 03:32:31;;;;;;;24.45;3.95;;;;;;;6.21;100.00;102765.09;5069390;28;20179;-36
2022/01/30 03:34:59;;;;;;;19.05;2.95;;;;;;;6.20;100.00;102763.41;5068872;28;20049;-35
2022/01/30 03:37:27;;;;;;;21.55;4.47;;;;;;;6.20;100.00;102766.16;5069433;28;20150;-40
2022/01/30 03:39:55;;;;;;;20.35;2.92;;;;;;;6.21;100.00;102770.63;5069681;28;20052;-34
2022/01/30 03:42:24;;;;;;;22.88;3.17;;;;;;;6.19;100.00;102764.50;5067722;28;20063;-40
2022/01/30 03:44:52;;;;;;;24.13;4.10;;;;;;;6.17;100.00;102761.94;5069682;28;20150;-33
2022/01/30 03:47:24;;;;;;;32.38;4.75;;;;;;;6.16;100.00;102764.94;5069501;28;20056;-31
2022/01/30 03:49:54;;;;;;;23.30;4.43;;;;;;;6.16;100.00;102767.72;5068836;28;20234;-35
2022/01/30 03:52:22;;;;;;;26.98;4.47;;;;;;;6.17;100.00;102766.63;5069434;28;20053;-34
2022/01/30 03:54:49;;;;;;;27.20;4.28;;;;;;;6.17;100.00;102773.03;5069325;28;20067;-34
2022/01/30 03:57:17;;;;;;;33.60;5.60;;;;;;;6.17;100.00;102775.81;5068595;28;20503;-35
2022/01/30 03:59:46;;;;;;;38.17;5.90;;;;;;;6.17;100.00;102774.97;5069191;28;20050;-33
2022/01/30 04:02:14;;;;;;;28.52;4.57;;;;;;;6.18;100.00;102791.38;5068695;28;20186;-34
2022/01/30 04:04:42;;;;;;;37.47;5.78;;;;;;;6.19;100.00;102793.03;5070739;28;20041;-39
2022/01/30 04:07:11;;;;;;;29.73;4.70;;;;;;;6.18;100.00;102799.69;5069061;28;20080;-33
2022/01/30 04:09:59;;;;;;;19.30;3.83;;;;;;;6.16;100.00;102796.28;5069833;28;20059;-38
2022/01/30 04:12:40;;;;;;;25.73;3.85;;;;;;;6.16;100.00;102800.97;5069328;28;20086;-36
2022/01/30 04:15:21;;;;;;;27.65;4.25;;;;;;;6.14;100.00;102800.34;5069309;28;20118;-34
2022/01/30 04:18:01;;;;;;;28.77;4.72;;;;;;;6.12;100.00;102786.69;5068583;28;20071;-36
2022/01/30 04:20:43;;;;;;;28.77;4.32;;;;;;;6.09;100.00;102794.59;5070631;28;20056;-38
2022/01/30 04:23:19;;;;;;;25.70;4.47;;;;;;;6.09;100.00;102795.47;5060262;28;20044;-32
2022/01/30 04:25:50;;;;;;;26.60;4.93;;;;;;;6.08;100.00;102790.13;5070392;28;20048;-33
2022/01/30 04:28:34;;;;;;;31.92;5.38;;;;;;;6.08;100.00;102798.44;5069145;28;20177;-35
2022/01/30 04:31:22;;;;;;;27.80;4.22;;;;;;;6.08;100.00;102792.91;5069782;28;20067;-33
2022/01/30 04:34:08;;;;;;;29.25;4.72;;;;;;;6.08;100.00;102790.13;5068430;28;20501;-34
2022/01/30 04:37:01;;;;;;;27.33;4.47;;;;;;;6.09;100.00;102803.78;5070076;28;20051;-36
2022/01/30 04:40:33;;;;;;;30.08;4.68;;;;;;;6.07;100.00;102808.69;5054894;28;20495;-34
2022/01/30 04:52:53;;;;;;;31.58;5.38;;;;;;;6.04;100.00;102811.88;5066897;28;19928;-37
2022/01/30 04:59:08;;;;;;;35.78;5.72;;;;;;;6.10;100.00;102797.16;5072712;28;20064;-37
2022/01/30 05:01:59;;;;;;;29.50;4.45;;;;;;;6.11;100.00;102789.69;5072255;28;20047;-38
2022/01/30 05:05:05;;;;;;;30.50;4.10;;;;;;;6.12;100.00;102802.47;5066059;28;20067;-35
2022/01/30 05:07:53;;;;;;;27.45;4.35;;;;;;;6.12;100.00;102805.25;5070981;28;20578;-33
2022/01/30 05:10:40;;;;;;;38.53;5.78;;;;;;;6.12;100.00;102796.94;5073539;28;20143;-34
2022/01/30 05:13:32;;;;;;;35.72;5.25;;;;;;;6.12;100.00;102800.56;5071920;28;20517;-30
2022/01/30 05:16:20;;;;;;;33.90;4.20;;;;;;;6.12;100.00;102800.56;5073590;28;20029;-34
2022/01/30 05:19:07;;;;;;;26.48;4.30;;;;;;;6.12;100.00;102808.03;5073664;28;20063;-37
2022/01/30 05:21:47;;;;;;;30.52;4.95;;;;;;;6.12;100.00;102808.03;5071251;28;20139;-39
2022/01/30 05:24:36;;;;;;;30.65;4.80;;;;;;;6.14;100.00;102805.88;5072323;28;20040;-35
2022/01/30 05:27:27;;;;;;;31.30;4.45;;;;;;;6.13;100.00;102809.72;5059053;28;20548;-33
2022/01/30 05:30:14;;;;;;;29.67;5.03;;;;;;;6.12;100.00;102800.56;5073495;28;20048;-36
2022/01/30 05:33:09;;;;;;;27.00;4.82;;;;;;;6.13;100.00;102804.19;5073384;28;20064;-38
2022/01/30 05:35:40;;;;;;;31.75;5.25;;;;;;;6.13;100.00;102801.41;5063685;28;20143;-35
2022/01/30 05:38:24;;;;;;;37.35;4.53;;;;;;;6.12;100.00;102808.03;5071852;28;20533;-34
2022/01/30 05:41:01;;;;;;;37.65;4.70;;;;;;;6.09;100.00;102817.63;5072387;28;20131;-37
2022/01/30 05:44:11;;;;;;;32.72;4.22;;;;;;;6.07;100.00;102817.00;5071330;28;20522;-34
2022/01/30 05:46:56;;;;;;;31.98;4.68;;;;;;;6.07;100.00;102827.22;5071468;28;20044;-33
2022/01/30 05:49:36;;;;;;;31.60;4.38;;;;;;;6.08;100.00;102827.00;5070855;28;20135;-33
2022/01/30 05:52:36;;;;;;;28.45;4.80;;;;;;;6.06;100.00;102839.38;5072536;28;20134;-30
2022/01/30 05:55:14;;;;;;;30.02;4.93;;;;;;;6.08;100.00;102842.78;5070763;28;20133;-34
2022/01/30 05:57:42;;;;;;;35.95;5.25;;;;;;;6.07;100.00;102847.47;5068038;28;20057;-32
2022/01/30 06:00:13;;;;;;;27.33;4.57;;;;;;;6.09;100.00;102848.13;5071198;28;20056;-35
2022/01/30 06:02:54;;;;;;;32.78;4.80;;;;;;;6.12;100.00;102858.75;5067489;28;20048;-32
2022/01/30 06:05:23;;;;;;;30.08;4.95;;;;;;;6.16;100.00;102864.72;5070351;28;20072;-32
2022/01/30 06:07:53;;;;;;;27.83;4.13;;;;;;;6.19;100.00;102865.09;5070009;28;20052;-37
2022/01/30 06:10:24;;;;;;;30.00;4.68;;;;;;;6.22;100.00;102875.75;5071640;28;20128;-34
2022/01/30 06:12:51;;;;;;;26.38;4.72;;;;;;;6.23;100.00;102869.16;5070949;28;20058;-35
2022/01/30 06:15:20;;;;;;;26.25;4.68;;;;;;;6.26;100.00;102865.09;5071205;28;20072;-34
2022/01/30 06:17:52;;;;;;;28.67;4.00;;;;;;;6.22;100.00;102883.22;5070140;28;20582;-31
2022/01/30 06:20:39;;;;;;;25.80;4.47;;;;;;;6.19;100.00;102887.28;5071251;28;20122;-37
2022/01/30 06:23:29;;;;;;;25.25;3.88;;;;;;;6.17;100.00;102894.16;5055232;28;20143;-31
2022/01/30 06:26:17;;;;;;;31.02;4.30;;;;;;;6.13;100.00;102901.19;5063971;28;20059;-37
2022/01/30 06:29:20;;;;;;;26.45;4.03;;;;;;;6.11;100.00;102912.50;5062878;28;20133;-33
2022/01/30 06:32:16;;;;;;;29.48;4.80;;;;;;;6.07;100.00;102907.59;5070755;28;20063;-30
2022/01/30 06:35:03;;;;;;;35.13;5.53;;;;;;;6.05;100.00;102920.81;5072074;28;20194;-35
2022/01/30 06:37:57;;;;;;;34.30;4.90;;;;;;;6.02;100.00;102922.09;5063734;28;20102;-35
2022/01/30 06:40:59;;;;;;;;;;;;;;;5.91;100.00;102920.03;5072021;28;20071;-37
2022/01/30 06:43:34;;;;;;;29.92;4.60;;;;;;;5.87;100.00;102910.41;5071763;28;19924;-34
2022/01/30 06:46:20;;;;;;;30.55;4.75;;;;;;;5.87;100.00;102922.34;5069683;28;20110;-32
2022/01/30 06:49:24;;;;;;;26.10;3.92;;;;;;;5.87;99.31;102938.97;5049299;28;20297;-34
2022/01/30 06:52:11;;;;;;;25.88;4.43;;;;;;;5.88;97.96;102924.09;5068972;28;20063;-36
2022/01/30 06:55:15;;;;;;;29.08;4.30;;;;;;;5.91;98.26;102922.81;5049080;28;20516;-32
2022/01/30 06:58:01;;;;;;;25.20;3.78;;;;;;;5.91;97.11;102949.66;5068768;28;20154;-36
2022/01/30 07:00:49;;;;;;;22.85;4.18;;;;;;;5.91;95.54;102950.50;5070213;28;20048;-36
2022/01/30 07:03:35;;;;;;;23.17;3.80;;;;;;;5.93;95.48;102953.91;5062121;28;20210;-33
2022/01/30 07:06:14;;;;;;;20.60;3.95;;;;;;;5.95;95.66;102957.31;5069263;28;20146;-33
2022/01/30 07:08:42;;;;;;;29.05;4.13;;;;;;;5.98;96.28;102961.59;5059435;28;20060;-34
2022/01/30 07:11:10;;;;;;;34.50;5.68;;;;;;;6.00;96.42;102962.19;5069724;28;20481;-33
2022/01/30 07:13:38;;;;;;;31.05;4.82;;;;;;;5.98;96.03;102965.22;5069247;28;20049;-37
2022/01/30 07:16:07;;;;;;;33.80;4.95;;;;;;;5.98;96.18;102967.13;5069715;28;20068;-31
2022/01/30 07:18:35;;;;;;;31.15;4.90;;;;;;;5.97;96.73;102965.41;5069685;28;20493;-33
2022/01/30 07:21:07;;;;;;;33.58;4.88;;;;;;;5.96;96.65;102981.19;5067333;28;20614;-34
2022/01/30 07:23:35;;;;;;;28.52;4.78;;;;;;;5.96;95.25;102991.44;5070020;28;20139;-31
2022/01/30 07:26:03;;;;;;;26.88;4.47;;;;;;;5.97;93.94;102990.38;5058472;28;20045;-32
2022/01/30 07:28:31;;;;;;;29.92;4.63;;;;;;;5.95;94.68;102990.56;5067404;28;20417;-31
2022/01/30 07:30:59;;;;;;;25.27;3.88;;;;;;;5.96;95.19;102986.75;5069534;28;20048;-35
2022/01/30 07:33:28;;;;;;;25.15;4.65;;;;;;;6.00;96.49;102999.06;5068546;28;20455;-36
2022/01/30 07:35:57;;;;;;;24.33;5.18;;;;;;;6.03;97.29;102997.78;5066387;28;20072;-33
2022/01/30 07:38:25;;;;;;;34.90;4.78;;;;;;;6.04;97.28;102991.19;5059070;28;20040;-34
2022/01/30 07:40:52;;;;;;;24.50;4.00;;;;;;;6.04;96.70;102996.72;5068940;28;20059;-33
2022/01/30 07:43:21;;;;;;;27.30;4.15;;;;;;;6.06;96.98;103003.75;5070021;28;20048;-34
2022/01/30 07:45:59;;;;;;;25.02;4.35;;;;;;;6.07;97.04;103007.38;5067675;28;20556;-35
2022/01/30 07:48:28;;;;;;;26.48;4.22;;;;;;;6.07;96.59;103010.16;5068865;28;20045;-31
2022/01/30 07:50:56;;;;;;;27.95;4.35;;;;;;;6.08;96.70;103017.41;5069660;28;20147;-37
2022/01/30 07:53:24;;;;;;;26.27;4.50;;;;;;;6.08;96.21;103015.47;5069826;28;20044;-35
2022/01/30 07:55:52;;;;;;;36.63;4.25;;;;;;;6.11;96.46;103011.44;5069149;28;20059;-32
2022/01/30 07:58:20;;;;;;;32.03;4.53;;;;;;;6.14;97.02;103013.78;5069030;28;20062;-33
2022/01/30 08:00:48;;;;;;;28.75;4.60;;;;;;;6.16;97.29;103014.41;5069383;28;20139;-35
2022/01/30 08:03:16;;;;;;;28.67;5.10;;;;;;;6.19;97.53;103014.81;5068717;28;20033;-31
2022/01/30 08:05:45;;;;;;;39.20;4.95;;;;;;;6.20;97.72;103010.09;5069761;28;20049;-37
2022/01/30 08:08:13;;;;;;;30.30;5.20;;;;;;;6.20;97.88;102999.00;5069222;28;20482;-34
2022/01/30 08:10:41;;;;;;;29.98;5.00;;;;;;;6.17;96.72;102996.72;5069512;28;20106;-37
2022/01/30 08:13:09;;;;;;;35.80;4.88;;;;;;;6.16;96.47;103004.16;5067987;28;20486;-35
2022/01/30 08:15:36;;;;;;;24.98;4.10;;;;;;;6.15;96.09;103007.16;5068803;28;20048;-36
2022/01/30 08:18:04;;;;;;;26.45;4.78;;;;;;;6.16;96.35;103008.88;5069114;28;20052;-32
2022/01/30 08:20:32;;;;;;;32.25;4.82;;;;;;;6.19;96.53;103019.53;5069110;28;20090;-34
2022/01/30 08:23:07;;;;;;;36.90;5.20;;;;;;;6.23;96.57;103015.22;5068612;28;20056;-36
2022/01/30 08:25:35;;;;;;;24.10;4.97;;;;;;;6.27;96.47;103021.19;5069316;28;20056;-34
2022/01/30 08:28:03;;;;;;;28.35;4.90;;;;;;;6.29;95.80;103019.91;5070027;28;20044;-34
2022/01/30 08:30:31;;;;;;;36.38;5.18;;;;;;;6.35;95.74;103013.50;5069846;28;20140;-34
2022/01/30 08:32:59;;;;;;;29.45;4.32;;;;;;;6.43;94.34;103017.94;5073129;28;20147;-34
2022/01/30 08:35:29;;;;;;;35.40;5.00;;;;;;;6.52;94.11;103024.94;5072318;28;20052;-35
2022/01/30 08:37:58;;;;;;;28.83;4.70;;;;;;;6.61;94.40;103034.72;5071762;28;20044;-36
2022/01/30 08:40:28;;;;;;;32.63;4.97;;;;;;;6.68;94.59;103032.78;5062881;28;20110;-41
2022/01/30 08:42:55;;;;;;;26.08;4.80;;;;;;;6.74;94.33;103039.38;5073391;28;20037;-38
2022/01/30 08:45:24;;;;;;;27.90;5.05;;;;;;;6.82;94.50;103039.94;5070104;28;20135;-40
2022/01/30 08:47:53;;;;;;;32.20;5.45;;;;;;;6.91;94.02;103024.75;5073700;28;20150;-39
2022/01/30 08:50:22;;;;;;;35.95;5.40;;;;;;;7.00;94.01;103025.34;5073842;28;20048;-38
2022/01/30 08:52:50;;;;;;;31.65;5.07;;;;;;;7.08;94.08;103038.13;5073209;28;20060;-40
2022/01/30 08:55:20;;;;;;;32.25;5.43;;;;;;;7.16;93.47;103033.16;5073045;28;20238;-32
2022/01/30 08:57:50;;;;;;;31.15;5.10;;;;;;;7.22;93.11;103050.84;5072756;28;20159;-32
2022/01/30 09:00:19;;;;;;;34.75;5.78;;;;;;;7.34;93.07;103051.00;5073011;28;20519;-32
2022/01/30 09:02:47;;;;;;;30.55;5.40;;;;;;;7.52;93.06;103039.97;5073278;28;20053;-33
2022/01/30 09:05:15;;;;;;;29.20;4.88;;;;;;;7.70;92.39;103040.03;5071855;28;20455;-31
2022/01/30 09:07:43;;;;;;;34.63;5.13;;;;;;;7.95;92.23;103040.88;5073204;28;20075;-42
2022/01/30 09:10:12;;;;;;;31.92;5.30;;;;;;;8.18;90.45;103033.81;5072848;28;20044;-39
2022/01/30 09:12:40;;;;;;;25.15;5.38;;;;;;;8.37;89.32;103045.81;5072645;28;20075;-34
2022/01/30 09:15:13;;;;;;;27.65;4.95;;;;;;;8.57;88.88;103047.28;5071561;28;20055;-34
2022/01/30 09:17:41;;;;;;;26.05;4.85;;;;;;;8.80;87.99;103049.34;5072941;28;20041;-42
2022/01/30 09:20:11;;;;;;;29.98;4.90;;;;;;;9.03;86.68;103048.59;5072395;28;20429;-31
2022/01/30 09:22:39;;;;;;;30.20;4.88;;;;;;;9.20;86.08;103046.84;5072648;28;20044;-31
2022/01/30 09:25:08;;;;;;;29.58;5.22;;;;;;;9.40;86.03;103045.69;5071552;28;20040;-34
2022/01/30 09:27:36;;;;;;;28.45;5.22;;;;;;;9.66;86.06;103048.06;5072074;28;20135;-38
2022/01/30 09:30:07;;;;;;;25.52;4.60;;;;;;;9.76;84.75;103048.34;5072226;28;20053;-37
2022/01/30 09:32:36;;;;;;;27.33;5.68;;;;;;;9.71;84.82;103052.94;5072528;28;20060;-35
2022/01/30 09:35:05;;;;;;;28.52;4.95;;;;;;;9.70;83.64;103067.97;5072629;28;20138;-31
2022/01/30 09:37:32;;;;;;;26.00;4.35;;;;;;;9.57;82.85;103066.25;5072882;28;20063;-37
2022/01/30 09:40:00;;;;;;;26.27;4.93;;;;;;;9.39;81.72;103078.31;5071942;28;20054;-41
2022/01/30 09:42:29;;;;;;;23.25;4.57;;;;;;;9.19;81.60;103078.59;5072547;28;20053;-34
2022/01/30 09:45:00;;;;;;;27.08;4.57;;;;;;;9.03;81.82;103082.03;5072588;28;20044;-38
2022/01/30 09:47:28;;;;;;;28.45;5.25;;;;;;;8.98;81.73;103076.34;5072282;28;20139;-34
2022/01/30 09:50:00;;;;;;;28.67;5.03;;;;;;;9.14;81.66;103089.59;5072599;28;20054;-38
2022/01/30 09:52:28;;;;;;;30.83;5.93;;;;;;;9.39;81.58;103089.47;5069652;28;20140;-38
2022/01/30 09:54:55;;;;;;;27.95;4.35;;;;;;;9.74;81.01;103097.06;5071712;28;20178;-35
2022/01/30 09:57:23;;;;;;;20.75;4.20;;;;;;;10.06;79.50;103097.59;5072238;28;20131;-37
2022/01/30 09:59:51;;;;;;;25.17;5.30;;;;;;;10.33;78.04;103096.94;5072514;28;20052;-36
2022/01/30 10:02:20;;;;;;;23.55;4.85;;;;;;;10.33;75.74;103085.75;5071480;28;20068;-34
2022/01/30 10:04:49;;;;;;;31.55;5.45;;;;;;;10.26;76.04;103084.19;5072174;28;20128;-37
2022/01/30 10:07:26;;;;;;;26.50;4.82;;;;;;;10.39;75.82;103078.38;5072197;28;20121;-36
2022/01/30 10:10:08;;;;;;;19.88;4.63;;;;;;;10.61;74.67;103068.25;5071313;28;20072;-35
2022/01/30 10:12:36;;;;;;;25.38;4.85;;;;;;;10.82;73.74;103077.91;5072318;28;20055;-32
2022/01/30 10:15:06;;;;;;;24.77;4.30;;;;;;;11.08;73.18;103076.50;5071333;28;20137;-39
2022/01/30 10:17:36;;;;;;;21.48;4.38;;;;;;;11.36;72.66;103084.06;5072085;28;20060;-34
2022/01/30 10:20:26;;;;;;;24.48;4.18;;;;;;;11.62;71.32;103079.75;5065671;28;20040;-37
2022/01/30 10:22:59;;;;;;;23.42;4.78;;;;;;;11.72;70.08;103080.81;5071327;28;20062;-35
2022/01/30 10:25:32;;;;;;;28.50;4.57;;;;;;;11.79;70.05;103074.25;5071269;28;20040;-31
2022/01/30 10:28:10;;;;;;;23.73;3.80;;;;;;;11.85;68.96;103082.44;5071626;28;20047;-33
2022/01/30 10:30:44;;;;;;;20.95;4.63;;;;;;;11.85;68.40;103088.03;5071031;28;20040;-33
2022/01/30 10:33:13;;;;;;;23.17;4.70;;;;;;;11.93;68.71;103084.84;5072013;28;20060;-34
2022/01/30 10:35:51;;;;;;;25.90;5.00;;;;;;;12.03;68.42;103085.00;5072020;28;20136;-37
2022/01/30 10:38:26;;;;;;;30.05;5.70;;;;;;;12.16;68.67;103080.16;5070953;28;20052;-38
2022/01/30 10:40:56;;;;;;;29.27;5.75;;;;;;;12.30;68.62;103087.09;5063480;28;20044;-35
2022/01/30 10:43:24;;;;;;;31.02;5.38;;;;;;;12.48;68.40;103092.41;5071111;28;20044;-36
2022/01/30 10:45:51;;;;;;;25.90;4.78;;;;;;;12.57;67.22;103102.09;5071407;28;20060;-35
2022/01/30 10:48:21;;;;;;;20.75;4.72;;;;;;;12.65;66.13;103096.03;5071403;28;20421;-37
2022/01/30 10:50:49;;;;;;;24.08;4.75;;;;;;;12.67;66.09;103102.22;5067445;28;20056;-35
2022/01/30 10:53:22;;;;;;;19.98;4.05;;;;;;;12.54;65.28;103107.34;5071353;28;20052;-36
2022/01/30 10:55:52;;;;;;;30.15;5.03;;;;;;;12.41;65.82;103106.59;5071392;28;20409;-35
2022/01/30 10:58:22;;;;;;;19.23;4.45;;;;;;;12.32;66.08;103104.50;5068568;28;20507;-37
2022/01/30 11:00:52;;;;;;;30.08;5.75;;;;;;;12.36;65.48;103105.69;5071355;28;20055;-35
2022/01/30 11:03:40;;;;;;;19.27;4.63;;;;;;;12.45;63.34;103101.31;5061192;28;20042;-37
2022/01/30 11:06:11;;;;;;;25.02;4.47;;;;;;;12.40;63.57;103115.25;5069315;28;20045;-33
2022/01/30 11:08:42;;;;;;;23.55;4.55;;;;;;;12.27;63.98;103118.41;5070853;28;20434;-40
2022/01/30 11:11:23;;;;;;;18.52;4.70;;;;;;;12.14;63.97;103114.00;5070367;28;20135;-40
2022/01/30 11:17:02;;;;;;;20.98;3.97;;;;;;;12.11;63.29;103116.47;5067840;28;20539;-30
2022/01/30 11:19:34;;;;;;;22.13;4.25;;;;;;;12.06;63.30;103114.41;5070133;28;20493;-33
2022/01/30 11:22:05;;;;;;;25.23;4.50;;;;;;;12.12;63.68;103112.56;5070185;28;20047;-41
2022/01/30 11:24:44;;;;;;;24.83;4.55;;;;;;;12.26;63.50;103105.50;5070826;28;20051;-40
2022/01/30 11:27:14;;;;;;;25.55;5.72;;;;;;;12.33;63.04;103100.59;5069533;28;20144;-34
2022/01/30 11:29:42;;;;;;;20.77;3.83;;;;;;;12.38;63.09;103095.94;5071051;28;20149;-39
2022/01/30 11:32:11;;;;;;;18.27;3.97;;;;;;;12.52;63.16;103104.81;5070863;28;20036;-35
2022/01/30 11:34:40;;;;;;;20.10;4.95;;;;;;;12.58;62.42;103105.75;5070691;28;20044;-35
2022/01/30 11:37:10;;;;;;;23.73;4.90;;;;;;;12.63;62.10;103109.44;5070554;28;20058;-35
2022/01/30 11:39:43;;;;;;;27.23;5.30;;;;;;;12.67;61.64;103101.38;5069809;28;20063;-37
2022/01/30 11:42:19;;;;;;;22.52;4.53;;;;;;;12.69;61.45;103101.97;5070276;28;20048;-36
2022/01/30 11:44:49;;;;;;;20.00;4.80;;;;;;;12.65;60.82;103107.22;5060600;28;20512;-35
2022/01/30 11:47:24;;;;;;;21.60;4.03;;;;;;;12.52;60.50;103098.34;5069830;28;20402;-41
2022/01/30 11:50:08;;;;;;;29.40;5.20;;;;;;;12.35;60.93;103107.63;5069058;28;20409;-35
2022/01/30 11:53:04;;;;;;;20.27;3.75;;;;;;;12.27;58.85;103093.22;5069208;28;20059;-37
2022/01/30 11:55:46;;;;;;;20.27;4.45;;;;;;;12.18;60.16;103097.56;5069631;28;20062;-33
2022/01/30 11:58:55;;;;;;;22.70;4.28;;;;;;;12.12;58.54;103082.63;5069932;28;20060;-40
2022/01/30 12:01:36;;;;;;;20.98;4.43;;;;;;;12.06;59.81;103076.09;5007731;28;20153;-34
2022/01/30 12:04:07;;;;;;;21.63;4.47;;;;;;;12.09;60.53;103080.34;5010939;28;20084;-41
2022/01/30 12:06:39;;;;;;;19.80;4.22;;;;;;;12.08;60.18;103081.44;5050380;28;20474;-38
2022/01/30 12:09:29;;;;;;;19.33;4.20;;;;;;;11.99;59.37;103069.00;5073229;28;20493;-34
2022/01/30 12:12:06;;;;;;;17.48;3.97;;;;;;;11.85;60.08;103068.47;5073851;28;20044;-38
2022/01/30 12:14:59;;;;;;;16.67;3.25;;;;;;;11.80;59.06;103067.53;5073684;28;20083;-36
2022/01/30 12:17:50;;;;;;;21.38;3.92;;;;;;;11.79;59.69;103066.66;5072482;28;20072;-42
2022/01/30 12:20:19;;;;;;;16.67;3.45;;;;;;;11.79;59.54;103063.88;5072653;28;20394;-34
2022/01/30 12:22:47;;;;;;;21.42;3.95;;;;;;;11.76;59.10;103067.19;5073614;28;20084;-36